sensor_id;sensor_type;location;lat;lon;timestamp;P1;durP1;ratioP1;P2;durP2;ratioP2
8986;SDS011;4529;51.360;12.474;2022-10-16T00:04:53;1.20;;;1.10;;
8986;SDS011;4529;51.360;12.474;2022-10-16T00:09:57;1.03;;;1.00;;
8986;SDS011;4529;51.360;12.474;2022-10-16T00:15:00;1.33;;;1.13;;
8986;SDS011;4529;51.360;12.474;2022-10-16T00:20:04;1.30;;;1.20;;
8986;SDS011;4529;51.360;12.474;2022-10-16T00:25:08;1.00;;;1.00;;
8986;SDS011;4529;51.360;12.474;2022-10-16T00:30:11;1.30;;;1.20;;
8986;SDS011;4529;51.360;12.474;2022-10-16T00:35:15;0.93;;;0.93;;
8986;SDS011;4529;51.360;12.474;2022-10-16T00:40:18;1.73;;;1.10;;
8986;SDS011;4529;51.360;12.474;2022-10-16T00:45:22;0.80;;;0.80;;
8986;SDS011;4529;51.360;12.474;2022-10-16T00:50:30;1.37;;;0.90;;
8986;SDS011;4529;51.360;12.474;2022-10-16T00:55:34;0.80;;;0.80;;
8986;SDS011;4529;51.360;12.474;2022-10-16T01:00:37;0.73;;;0.73;;
8986;SDS011;4529;51.360;12.474;2022-10-16T01:05:43;0.90;;;0.90;;
8986;SDS011;4529;51.360;12.474;2022-10-16T01:16:03;0.80;;;0.80;;
8986;SDS011;4529;51.360;12.474;2022-10-16T01:21:19;0.83;;;0.83;;
8986;SDS011;4529;51.360;12.474;2022-10-16T01:32:18;0.90;;;0.90;;
8986;SDS011;4529;51.360;12.474;2022-10-16T01:37:42;1.10;;;0.80;;
8986;SDS011;4529;51.360;12.474;2022-10-16T01:42:48;2.07;;;0.80;;
8986;SDS011;4529;51.360;12.474;2022-10-16T01:47:53;1.33;;;0.90;;
8986;SDS011;4529;51.360;12.474;2022-10-16T01:52:57;0.90;;;0.90;;
8986;SDS011;4529;51.360;12.474;2022-10-16T01:58:01;0.83;;;0.80;;
8986;SDS011;4529;51.360;12.474;2022-10-16T02:03:04;0.87;;;0.80;;
8986;SDS011;4529;51.360;12.474;2022-10-16T02:08:08;0.83;;;0.80;;
8986;SDS011;4529;51.360;12.474;2022-10-16T02:13:45;2.00;;;0.80;;
8986;SDS011;4529;51.360;12.474;2022-10-16T02:18:26;0.80;;;0.80;;
8986;SDS011;4529;51.360;12.474;2022-10-16T02:23:35;0.60;;;0.60;;
8986;SDS011;4529;51.360;12.474;2022-10-16T02:28:48;0.90;;;0.90;;
8986;SDS011;4529;51.360;12.474;2022-10-16T02:33:51;0.90;;;0.90;;
8986;SDS011;4529;51.360;12.474;2022-10-16T02:38:56;2.03;;;1.00;;
8986;SDS011;4529;51.360;12.474;2022-10-16T02:44:00;0.70;;;0.70;;
8986;SDS011;4529;51.360;12.474;2022-10-16T02:49:04;0.70;;;0.70;;
8986;SDS011;4529;51.360;12.474;2022-10-16T02:54:08;1.33;;;0.70;;
8986;SDS011;4529;51.360;12.474;2022-10-16T02:59:12;0.77;;;0.77;;
8986;SDS011;4529;51.360;12.474;2022-10-16T03:04:16;0.80;;;0.80;;
8986;SDS011;4529;51.360;12.474;2022-10-16T03:09:20;0.80;;;0.80;;
8986;SDS011;4529;51.360;12.474;2022-10-16T03:14:25;0.80;;;0.80;;
8986;SDS011;4529;51.360;12.474;2022-10-16T03:19:29;0.87;;;0.87;;
8986;SDS011;4529;51.360;12.474;2022-10-16T03:24:32;0.80;;;0.80;;
8986;SDS011;4529;51.360;12.474;2022-10-16T03:29:36;0.83;;;0.83;;
8986;SDS011;4529;51.360;12.474;2022-10-16T03:34:39;1.40;;;0.83;;
8986;SDS011;4529;51.360;12.474;2022-10-16T03:39:43;1.00;;;1.00;;
8986;SDS011;4529;51.360;12.474;2022-10-16T03:44:46;0.97;;;0.97;;
8986;SDS011;4529;51.360;12.474;2022-10-16T03:49:49;0.90;;;0.90;;
8986;SDS011;4529;51.360;12.474;2022-10-16T03:54:53;4.10;;;1.07;;
8986;SDS011;4529;51.360;12.474;2022-10-16T03:59:56;2.20;;;0.97;;
8986;SDS011;4529;51.360;12.474;2022-10-16T04:05:00;0.80;;;0.80;;
8986;SDS011;4529;51.360;12.474;2022-10-16T04:10:03;1.10;;;1.10;;
8986;SDS011;4529;51.360;12.474;2022-10-16T04:15:07;0.87;;;0.83;;
8986;SDS011;4529;51.360;12.474;2022-10-16T04:20:11;1.00;;;1.00;;
8986;SDS011;4529;51.360;12.474;2022-10-16T04:25:15;0.90;;;0.90;;
8986;SDS011;4529;51.360;12.474;2022-10-16T04:30:19;1.20;;;1.00;;
8986;SDS011;4529;51.360;12.474;2022-10-16T04:35:22;1.63;;;1.10;;
8986;SDS011;4529;51.360;12.474;2022-10-16T04:40:26;0.80;;;0.80;;
8986;SDS011;4529;51.360;12.474;2022-10-16T04:45:30;3.30;;;1.00;;
8986;SDS011;4529;51.360;12.474;2022-10-16T04:50:34;1.00;;;1.00;;
8986;SDS011;4529;51.360;12.474;2022-10-16T04:55:39;1.27;;;1.20;;
8986;SDS011;4529;51.360;12.474;2022-10-16T05:00:43;1.83;;;1.20;;
8986;SDS011;4529;51.360;12.474;2022-10-16T05:05:47;1.00;;;1.00;;
8986;SDS011;4529;51.360;12.474;2022-10-16T05:10:51;1.10;;;1.10;;
8986;SDS011;4529;51.360;12.474;2022-10-16T05:15:55;1.20;;;1.20;;
8986;SDS011;4529;51.360;12.474;2022-10-16T05:20:59;1.00;;;1.00;;
8986;SDS011;4529;51.360;12.474;2022-10-16T05:26:04;1.30;;;1.20;;
8986;SDS011;4529;51.360;12.474;2022-10-16T05:31:08;1.33;;;1.23;;
8986;SDS011;4529;51.360;12.474;2022-10-16T05:36:11;3.20;;;1.20;;
8986;SDS011;4529;51.360;12.474;2022-10-16T05:41:14;1.00;;;1.00;;
8986;SDS011;4529;51.360;12.474;2022-10-16T05:46:17;1.00;;;1.00;;
8986;SDS011;4529;51.360;12.474;2022-10-16T05:51:21;0.90;;;0.90;;
8986;SDS011;4529;51.360;12.474;2022-10-16T05:56:24;1.00;;;1.00;;
8986;SDS011;4529;51.360;12.474;2022-10-16T06:01:28;1.00;;;1.00;;
8986;SDS011;4529;51.360;12.474;2022-10-16T06:06:31;1.27;;;1.17;;
8986;SDS011;4529;51.360;12.474;2022-10-16T06:11:35;1.30;;;1.20;;
8986;SDS011;4529;51.360;12.474;2022-10-16T06:16:38;1.00;;;1.00;;
8986;SDS011;4529;51.360;12.474;2022-10-16T06:21:42;1.00;;;1.00;;
8986;SDS011;4529;51.360;12.474;2022-10-16T06:26:45;1.20;;;1.10;;
8986;SDS011;4529;51.360;12.474;2022-10-16T06:31:49;1.00;;;1.00;;
8986;SDS011;4529;51.360;12.474;2022-10-16T06:36:52;1.00;;;1.00;;
8986;SDS011;4529;51.360;12.474;2022-10-16T06:41:55;1.20;;;0.80;;
8986;SDS011;4529;51.360;12.474;2022-10-16T06:46:59;1.13;;;1.03;;
8986;SDS011;4529;51.360;12.474;2022-10-16T06:52:03;0.83;;;0.83;;
8986;SDS011;4529;51.360;12.474;2022-10-16T06:57:06;1.00;;;1.00;;
8986;SDS011;4529;51.360;12.474;2022-10-16T07:02:10;2.27;;;1.00;;
8986;SDS011;4529;51.360;12.474;2022-10-16T07:07:13;1.00;;;1.00;;
8986;SDS011;4529;51.360;12.474;2022-10-16T07:12:17;1.67;;;1.00;;
8986;SDS011;4529;51.360;12.474;2022-10-16T07:17:20;1.30;;;1.20;;
8986;SDS011;4529;51.360;12.474;2022-10-16T07:22:23;0.80;;;0.80;;
8986;SDS011;4529;51.360;12.474;2022-10-16T07:27:27;1.00;;;1.00;;
8986;SDS011;4529;51.360;12.474;2022-10-16T07:32:31;0.80;;;0.80;;
8986;SDS011;4529;51.360;12.474;2022-10-16T07:37:34;0.77;;;0.77;;
8986;SDS011;4529;51.360;12.474;2022-10-16T07:42:37;0.90;;;0.90;;
8986;SDS011;4529;51.360;12.474;2022-10-16T07:47:41;1.00;;;1.00;;
8986;SDS011;4529;51.360;12.474;2022-10-16T07:52:44;0.80;;;0.80;;
8986;SDS011;4529;51.360;12.474;2022-10-16T07:57:48;0.80;;;0.80;;
8986;SDS011;4529;51.360;12.474;2022-10-16T08:02:51;0.93;;;0.80;;
8986;SDS011;4529;51.360;12.474;2022-10-16T08:07:55;0.63;;;0.63;;
8986;SDS011;4529;51.360;12.474;2022-10-16T08:12:58;0.70;;;0.70;;
8986;SDS011;4529;51.360;12.474;2022-10-16T08:18:02;0.63;;;0.63;;
8986;SDS011;4529;51.360;12.474;2022-10-16T08:23:05;0.73;;;0.73;;
8986;SDS011;4529;51.360;12.474;2022-10-16T08:28:09;0.80;;;0.80;;
8986;SDS011;4529;51.360;12.474;2022-10-16T08:33:12;0.60;;;0.60;;
8986;SDS011;4529;51.360;12.474;2022-10-16T08:38:15;0.57;;;0.57;;
8986;SDS011;4529;51.360;12.474;2022-10-16T08:48:30;0.60;;;0.60;;
8986;SDS011;4529;51.360;12.474;2022-10-16T08:53:42;0.53;;;0.53;;
8986;SDS011;4529;51.360;12.474;2022-10-16T08:58:52;0.63;;;0.63;;
8986;SDS011;4529;51.360;12.474;2022-10-16T09:04:05;1.67;;;0.63;;
8986;SDS011;4529;51.360;12.474;2022-10-16T09:20:10;0.63;;;0.63;;
8986;SDS011;4529;51.360;12.474;2022-10-16T09:25:22;0.70;;;0.70;;
8986;SDS011;4529;51.360;12.474;2022-10-16T09:30:27;1.00;;;0.80;;
8986;SDS011;4529;51.360;12.474;2022-10-16T09:35:40;0.83;;;0.80;;
8986;SDS011;4529;51.360;12.474;2022-10-16T09:40:46;1.00;;;1.00;;
8986;SDS011;4529;51.360;12.474;2022-10-16T09:45:57;0.83;;;0.83;;
8986;SDS011;4529;51.360;12.474;2022-10-16T09:51:04;2.33;;;0.90;;
8986;SDS011;4529;51.360;12.474;2022-10-16T09:56:09;0.80;;;0.80;;
8986;SDS011;4529;51.360;12.474;2022-10-16T10:01:12;0.90;;;0.90;;
8986;SDS011;4529;51.360;12.474;2022-10-16T10:06:20;0.80;;;0.80;;
8986;SDS011;4529;51.360;12.474;2022-10-16T10:16:50;2.43;;;0.87;;
8986;SDS011;4529;51.360;12.474;2022-10-16T10:21:54;0.90;;;0.90;;
8986;SDS011;4529;51.360;12.474;2022-10-16T10:27:03;1.13;;;1.10;;
8986;SDS011;4529;51.360;12.474;2022-10-16T10:32:14;1.00;;;1.00;;
8986;SDS011;4529;51.360;12.474;2022-10-16T10:37:35;0.90;;;0.90;;
8986;SDS011;4529;51.360;12.474;2022-10-16T10:42:35;1.30;;;1.20;;
8986;SDS011;4529;51.360;12.474;2022-10-16T10:47:59;1.67;;;1.00;;
8986;SDS011;4529;51.360;12.474;2022-10-16T10:58:46;1.00;;;1.00;;
8986;SDS011;4529;51.360;12.474;2022-10-16T11:09:39;4.90;;;1.23;;
8986;SDS011;4529;51.360;12.474;2022-10-16T11:14:52;1.37;;;1.37;;
8986;SDS011;4529;51.360;12.474;2022-10-16T11:20:11;1.00;;;1.00;;
8986;SDS011;4529;51.360;12.474;2022-10-16T11:25:22;1.00;;;1.00;;
8986;SDS011;4529;51.360;12.474;2022-10-16T11:30:30;1.30;;;1.20;;
8986;SDS011;4529;51.360;12.474;2022-10-16T11:35:44;1.03;;;1.03;;
8986;SDS011;4529;51.360;12.474;2022-10-16T11:40:51;1.50;;;1.50;;
8986;SDS011;4529;51.360;12.474;2022-10-16T11:45:55;1.47;;;1.37;;
8986;SDS011;4529;51.360;12.474;2022-10-16T11:56:08;1.83;;;1.63;;
8986;SDS011;4529;51.360;12.474;2022-10-16T12:11:48;1.47;;;1.43;;
8986;SDS011;4529;51.360;12.474;2022-10-16T12:21:59;1.40;;;1.40;;
8986;SDS011;4529;51.360;12.474;2022-10-16T12:27:02;1.40;;;1.40;;
8986;SDS011;4529;51.360;12.474;2022-10-16T12:37:36;1.47;;;1.40;;
8986;SDS011;4529;51.360;12.474;2022-10-16T12:42:36;1.73;;;1.63;;
8986;SDS011;4529;51.360;12.474;2022-10-16T12:47:47;1.53;;;1.47;;
8986;SDS011;4529;51.360;12.474;2022-10-16T12:52:53;1.20;;;1.20;;
8986;SDS011;4529;51.360;12.474;2022-10-16T12:58:06;1.20;;;1.20;;
8986;SDS011;4529;51.360;12.474;2022-10-16T13:08:47;2.07;;;1.40;;
8986;SDS011;4529;51.360;12.474;2022-10-16T13:19:23;1.20;;;1.20;;
8986;SDS011;4529;51.360;12.474;2022-10-16T13:30:15;1.50;;;1.40;;
8986;SDS011;4529;51.360;12.474;2022-10-16T13:35:28;1.50;;;1.40;;
8986;SDS011;4529;51.360;12.474;2022-10-16T13:40:31;1.10;;;1.10;;
8986;SDS011;4529;51.360;12.474;2022-10-16T13:45:35;1.10;;;1.10;;
8986;SDS011;4529;51.360;12.474;2022-10-16T13:50:39;1.00;;;1.00;;
8986;SDS011;4529;51.360;12.474;2022-10-16T13:55:43;1.00;;;1.00;;
8986;SDS011;4529;51.360;12.474;2022-10-16T14:00:57;1.00;;;1.00;;
8986;SDS011;4529;51.360;12.474;2022-10-16T14:05:58;1.00;;;1.00;;
8986;SDS011;4529;51.360;12.474;2022-10-16T14:11:01;0.90;;;0.90;;
8986;SDS011;4529;51.360;12.474;2022-10-16T14:16:08;0.93;;;0.93;;
8986;SDS011;4529;51.360;12.474;2022-10-16T14:21:13;1.00;;;1.00;;
8986;SDS011;4529;51.360;12.474;2022-10-16T14:26:18;0.90;;;0.90;;
8986;SDS011;4529;51.360;12.474;2022-10-16T14:36:30;1.00;;;1.00;;
8986;SDS011;4529;51.360;12.474;2022-10-16T14:41:40;1.07;;;1.07;;
8986;SDS011;4529;51.360;12.474;2022-10-16T14:46:38;1.73;;;0.90;;
8986;SDS011;4529;51.360;12.474;2022-10-16T14:51:41;2.10;;;1.30;;
8986;SDS011;4529;51.360;12.474;2022-10-16T14:56:48;1.20;;;1.20;;
8986;SDS011;4529;51.360;12.474;2022-10-16T15:01:51;1.70;;;1.60;;
8986;SDS011;4529;51.360;12.474;2022-10-16T15:06:55;1.37;;;1.27;;
8986;SDS011;4529;51.360;12.474;2022-10-16T15:11:58;1.63;;;1.40;;
8986;SDS011;4529;51.360;12.474;2022-10-16T15:17:02;1.50;;;1.40;;
8986;SDS011;4529;51.360;12.474;2022-10-16T15:22:05;1.83;;;1.70;;
8986;SDS011;4529;51.360;12.474;2022-10-16T15:27:09;1.40;;;1.30;;
8986;SDS011;4529;51.360;12.474;2022-10-16T15:32:12;1.60;;;1.50;;
8986;SDS011;4529;51.360;12.474;2022-10-16T15:37:15;1.50;;;1.40;;
8986;SDS011;4529;51.360;12.474;2022-10-16T15:42:19;1.80;;;1.53;;
8986;SDS011;4529;51.360;12.474;2022-10-16T15:47:22;1.50;;;1.40;;
8986;SDS011;4529;51.360;12.474;2022-10-16T15:52:27;1.93;;;1.50;;
8986;SDS011;4529;51.360;12.474;2022-10-16T15:57:31;2.97;;;1.50;;
8986;SDS011;4529;51.360;12.474;2022-10-16T16:02:35;1.47;;;1.37;;
8986;SDS011;4529;51.360;12.474;2022-10-16T16:07:40;1.50;;;1.40;;
8986;SDS011;4529;51.360;12.474;2022-10-16T16:12:44;1.53;;;1.43;;
8986;SDS011;4529;51.360;12.474;2022-10-16T16:17:46;1.67;;;1.57;;
8986;SDS011;4529;51.360;12.474;2022-10-16T16:22:50;2.17;;;1.70;;
8986;SDS011;4529;51.360;12.474;2022-10-16T16:27:53;1.50;;;1.40;;
8986;SDS011;4529;51.360;12.474;2022-10-16T16:32:57;1.90;;;1.80;;
8986;SDS011;4529;51.360;12.474;2022-10-16T16:38:00;1.73;;;1.63;;
8986;SDS011;4529;51.360;12.474;2022-10-16T16:43:04;2.03;;;1.93;;
8986;SDS011;4529;51.360;12.474;2022-10-16T16:48:07;1.97;;;1.87;;
8986;SDS011;4529;51.360;12.474;2022-10-16T16:53:11;3.60;;;3.30;;
8986;SDS011;4529;51.360;12.474;2022-10-16T16:58:14;3.43;;;2.77;;
8986;SDS011;4529;51.360;12.474;2022-10-16T17:03:18;3.37;;;2.90;;
8986;SDS011;4529;51.360;12.474;2022-10-16T17:08:21;2.93;;;2.73;;
8986;SDS011;4529;51.360;12.474;2022-10-16T17:13:25;3.23;;;2.93;;
8986;SDS011;4529;51.360;12.474;2022-10-16T17:18:28;4.60;;;3.60;;
8986;SDS011;4529;51.360;12.474;2022-10-16T17:23:32;3.40;;;3.10;;
8986;SDS011;4529;51.360;12.474;2022-10-16T17:28:35;3.53;;;2.77;;
8986;SDS011;4529;51.360;12.474;2022-10-16T17:33:38;3.30;;;2.40;;
8986;SDS011;4529;51.360;12.474;2022-10-16T17:38:42;2.37;;;2.27;;
8986;SDS011;4529;51.360;12.474;2022-10-16T17:43:46;2.90;;;2.50;;
8986;SDS011;4529;51.360;12.474;2022-10-16T17:48:50;3.00;;;2.70;;
8986;SDS011;4529;51.360;12.474;2022-10-16T17:53:53;4.93;;;4.47;;
8986;SDS011;4529;51.360;12.474;2022-10-16T17:58:59;4.67;;;4.27;;
8986;SDS011;4529;51.360;12.474;2022-10-16T18:04:08;3.53;;;3.27;;
8986;SDS011;4529;51.360;12.474;2022-10-16T18:09:10;4.17;;;3.67;;
8986;SDS011;4529;51.360;12.474;2022-10-16T18:14:13;3.23;;;2.93;;
8986;SDS011;4529;51.360;12.474;2022-10-16T18:19:15;3.80;;;3.00;;
8986;SDS011;4529;51.360;12.474;2022-10-16T18:24:19;3.00;;;2.70;;
8986;SDS011;4529;51.360;12.474;2022-10-16T18:29:23;2.70;;;2.50;;
8986;SDS011;4529;51.360;12.474;2022-10-16T18:34:26;2.93;;;2.70;;
8986;SDS011;4529;51.360;12.474;2022-10-16T18:39:29;3.70;;;3.20;;
8986;SDS011;4529;51.360;12.474;2022-10-16T18:44:33;3.60;;;3.30;;
8986;SDS011;4529;51.360;12.474;2022-10-16T18:49:36;4.10;;;3.37;;
8986;SDS011;4529;51.360;12.474;2022-10-16T18:54:40;3.70;;;3.40;;
8986;SDS011;4529;51.360;12.474;2022-10-16T18:59:44;3.63;;;3.30;;
8986;SDS011;4529;51.360;12.474;2022-10-16T19:04:48;4.57;;;3.93;;
8986;SDS011;4529;51.360;12.474;2022-10-16T19:09:53;4.00;;;3.60;;
8986;SDS011;4529;51.360;12.474;2022-10-16T19:14:57;4.10;;;3.70;;
8986;SDS011;4529;51.360;12.474;2022-10-16T19:20:01;3.77;;;3.47;;
8986;SDS011;4529;51.360;12.474;2022-10-16T19:25:05;3.43;;;3.13;;
8986;SDS011;4529;51.360;12.474;2022-10-16T19:30:09;3.60;;;3.30;;
8986;SDS011;4529;51.360;12.474;2022-10-16T19:35:13;4.00;;;3.60;;
8986;SDS011;4529;51.360;12.474;2022-10-16T19:40:17;3.57;;;3.27;;
8986;SDS011;4529;51.360;12.474;2022-10-16T19:45:21;3.40;;;3.10;;
8986;SDS011;4529;51.360;12.474;2022-10-16T19:50:25;3.70;;;3.40;;
8986;SDS011;4529;51.360;12.474;2022-10-16T19:55:32;3.90;;;3.30;;
8986;SDS011;4529;51.360;12.474;2022-10-16T20:00:39;4.03;;;3.63;;
8986;SDS011;4529;51.360;12.474;2022-10-16T20:05:50;4.83;;;3.80;;
8986;SDS011;4529;51.360;12.474;2022-10-16T20:10:56;4.00;;;3.60;;
8986;SDS011;4529;51.360;12.474;2022-10-16T20:16:01;3.60;;;3.30;;
8986;SDS011;4529;51.360;12.474;2022-10-16T20:21:07;4.50;;;3.50;;
8986;SDS011;4529;51.360;12.474;2022-10-16T20:26:16;3.73;;;3.33;;
8986;SDS011;4529;51.360;12.474;2022-10-16T20:31:20;5.50;;;3.50;;
8986;SDS011;4529;51.360;12.474;2022-10-16T20:36:25;3.70;;;3.40;;
8986;SDS011;4529;51.360;12.474;2022-10-16T20:41:28;3.70;;;3.40;;
8986;SDS011;4529;51.360;12.474;2022-10-16T20:46:32;3.83;;;3.30;;
8986;SDS011;4529;51.360;12.474;2022-10-16T20:51:36;3.70;;;3.40;;
8986;SDS011;4529;51.360;12.474;2022-10-16T20:56:40;3.50;;;3.23;;
8986;SDS011;4529;51.360;12.474;2022-10-16T21:01:44;4.03;;;3.30;;
8986;SDS011;4529;51.360;12.474;2022-10-16T21:06:48;3.83;;;3.43;;
8986;SDS011;4529;51.360;12.474;2022-10-16T21:11:52;3.53;;;3.23;;
8986;SDS011;4529;51.360;12.474;2022-10-16T21:16:57;3.63;;;3.27;;
8986;SDS011;4529;51.360;12.474;2022-10-16T21:22:01;3.80;;;3.47;;
8986;SDS011;4529;51.360;12.474;2022-10-16T21:27:05;4.17;;;3.30;;
8986;SDS011;4529;51.360;12.474;2022-10-16T21:32:08;3.70;;;3.40;;
8986;SDS011;4529;51.360;12.474;2022-10-16T21:37:11;3.47;;;3.17;;
8986;SDS011;4529;51.360;12.474;2022-10-16T21:42:15;3.60;;;3.30;;
8986;SDS011;4529;51.360;12.474;2022-10-16T21:47:18;4.37;;;3.40;;
8986;SDS011;4529;51.360;12.474;2022-10-16T21:52:22;3.67;;;3.33;;
8986;SDS011;4529;51.360;12.474;2022-10-16T21:57:25;3.80;;;3.40;;
8986;SDS011;4529;51.360;12.474;2022-10-16T22:02:28;4.37;;;3.43;;
8986;SDS011;4529;51.360;12.474;2022-10-16T22:07:32;3.60;;;3.30;;
8986;SDS011;4529;51.360;12.474;2022-10-16T22:12:35;4.27;;;3.87;;
8986;SDS011;4529;51.360;12.474;2022-10-16T22:17:39;3.87;;;3.57;;
8986;SDS011;4529;51.360;12.474;2022-10-16T22:22:42;5.13;;;3.60;;
8986;SDS011;4529;51.360;12.474;2022-10-16T22:27:46;4.10;;;3.70;;
8986;SDS011;4529;51.360;12.474;2022-10-16T22:32:49;3.77;;;3.37;;
8986;SDS011;4529;51.360;12.474;2022-10-16T22:37:53;3.90;;;3.50;;
8986;SDS011;4529;51.360;12.474;2022-10-16T22:42:56;3.70;;;3.40;;
8986;SDS011;4529;51.360;12.474;2022-10-16T22:48:00;4.73;;;3.50;;
8986;SDS011;4529;51.360;12.474;2022-10-16T22:53:03;3.30;;;3.00;;
8986;SDS011;4529;51.360;12.474;2022-10-16T22:58:07;3.90;;;3.60;;
8986;SDS011;4529;51.360;12.474;2022-10-16T23:03:10;4.63;;;3.40;;
8986;SDS011;4529;51.360;12.474;2022-10-16T23:08:14;5.47;;;3.30;;
8986;SDS011;4529;51.360;12.474;2022-10-16T23:13:17;3.33;;;3.03;;
8986;SDS011;4529;51.360;12.474;2022-10-16T23:18:20;4.73;;;3.17;;
8986;SDS011;4529;51.360;12.474;2022-10-16T23:23:24;3.40;;;3.10;;
8986;SDS011;4529;51.360;12.474;2022-10-16T23:28:27;4.47;;;2.90;;
8986;SDS011;4529;51.360;12.474;2022-10-16T23:33:31;3.13;;;2.93;;
8986;SDS011;4529;51.360;12.474;2022-10-16T23:38:34;3.40;;;3.10;;
8986;SDS011;4529;51.360;12.474;2022-10-16T23:43:39;3.60;;;3.30;;
8986;SDS011;4529;51.360;12.474;2022-10-16T23:48:41;3.90;;;2.90;;
8986;SDS011;4529;51.360;12.474;2022-10-16T23:53:45;2.80;;;2.60;;
8986;SDS011;4529;51.360;12.474;2022-10-16T23:58:49;3.17;;;2.87;;
